sensor_id;sensor_type;location;lat;lon;timestamp;pressure;altitude;pressure_sealevel;temperature;humidity
18749;BME280;9503;53.560;10.246;2022-10-31T00:01:00;101232.38;;;12.82;100.00
18749;BME280;9503;53.560;10.246;2022-10-31T00:03:27;101224.88;;;12.87;100.00
18749;BME280;9503;53.560;10.246;2022-10-31T00:05:53;101232.97;;;12.77;100.00
18749;BME280;9503;53.560;10.246;2022-10-31T00:08:20;101231.06;;;12.72;100.00
18749;BME280;9503;53.560;10.246;2022-10-31T00:10:48;101234.00;;;12.80;100.00
18749;BME280;9503;53.560;10.246;2022-10-31T00:13:14;101237.06;;;12.91;100.00
18749;BME280;9503;53.560;10.246;2022-10-31T00:15:41;101240.63;;;12.93;100.00
18749;BME280;9503;53.560;10.246;2022-10-31T00:18:09;101237.88;;;12.90;100.00
18749;BME280;9503;53.560;10.246;2022-10-31T00:20:36;101236.53;;;12.98;100.00
18749;BME280;9503;53.560;10.246;2022-10-31T00:23:04;101237.44;;;12.98;100.00
18749;BME280;9503;53.560;10.246;2022-10-31T00:25:34;101240.81;;;12.97;100.00
18749;BME280;9503;53.560;10.246;2022-10-31T00:28:02;101238.06;;;12.93;100.00
18749;BME280;9503;53.560;10.246;2022-10-31T00:30:29;101241.34;;;12.90;100.00
18749;BME280;9503;53.560;10.246;2022-10-31T00:32:56;101248.88;;;12.86;100.00
18749;BME280;9503;53.560;10.246;2022-10-31T00:35:22;101250.75;;;12.90;100.00
18749;BME280;9503;53.560;10.246;2022-10-31T00:37:49;101255.38;;;12.97;100.00
18749;BME280;9503;53.560;10.246;2022-10-31T00:40:16;101246.03;;;12.99;100.00
18749;BME280;9503;53.560;10.246;2022-10-31T00:42:42;101251.88;;;12.95;100.00
18749;BME280;9503;53.560;10.246;2022-10-31T00:45:10;101252.50;;;12.91;100.00
18749;BME280;9503;53.560;10.246;2022-10-31T00:47:37;101249.88;;;12.89;100.00
18749;BME280;9503;53.560;10.246;2022-10-31T00:50:04;101247.00;;;12.83;100.00
18749;BME280;9503;53.560;10.246;2022-10-31T00:52:31;101243.41;;;12.80;100.00
18749;BME280;9503;53.560;10.246;2022-10-31T00:54:58;101239.75;;;12.75;100.00
18749;BME280;9503;53.560;10.246;2022-10-31T00:57:24;101239.31;;;12.65;100.00
18749;BME280;9503;53.560;10.246;2022-10-31T00:59:51;101248.50;;;12.60;100.00
18749;BME280;9503;53.560;10.246;2022-10-31T01:02:18;101244.81;;;12.55;100.00
18749;BME280;9503;53.560;10.246;2022-10-31T01:04:45;101231.94;;;12.55;100.00
18749;BME280;9503;53.560;10.246;2022-10-31T01:07:11;101244.91;;;12.57;100.00
18749;BME280;9503;53.560;10.246;2022-10-31T01:09:39;101242.03;;;12.51;100.00
18749;BME280;9503;53.560;10.246;2022-10-31T01:12:06;101245.31;;;12.48;100.00
18749;BME280;9503;53.560;10.246;2022-10-31T01:14:33;101247.75;;;12.45;100.00
18749;BME280;9503;53.560;10.246;2022-10-31T01:16:59;101247.31;;;12.36;100.00
18749;BME280;9503;53.560;10.246;2022-10-31T01:19:27;101255.03;;;12.36;100.00
18749;BME280;9503;53.560;10.246;2022-10-31T01:21:54;101251.78;;;12.40;100.00
18749;BME280;9503;53.560;10.246;2022-10-31T01:24:20;101260.47;;;12.42;100.00
18749;BME280;9503;53.560;10.246;2022-10-31T01:26:47;101261.47;;;12.45;100.00
18749;BME280;9503;53.560;10.246;2022-10-31T01:29:13;101264.94;;;12.46;100.00
18749;BME280;9503;53.560;10.246;2022-10-31T01:31:40;101271.13;;;12.50;100.00
18749;BME280;9503;53.560;10.246;2022-10-31T01:34:06;101261.56;;;12.47;100.00
18749;BME280;9503;53.560;10.246;2022-10-31T01:36:35;101269.88;;;12.59;100.00
18749;BME280;9503;53.560;10.246;2022-10-31T01:39:04;101278.63;;;12.63;100.00
18749;BME280;9503;53.560;10.246;2022-10-31T01:41:33;101276.94;;;12.63;100.00
18749;BME280;9503;53.560;10.246;2022-10-31T01:44:02;101283.34;;;12.71;100.00
18749;BME280;9503;53.560;10.246;2022-10-31T01:46:31;101282.31;;;12.86;100.00
18749;BME280;9503;53.560;10.246;2022-10-31T01:49:01;101278.31;;;12.92;100.00
18749;BME280;9503;53.560;10.246;2022-10-31T01:51:32;101279.25;;;13.12;100.00
18749;BME280;9503;53.560;10.246;2022-10-31T01:54:06;101283.69;;;13.33;100.00
18749;BME280;9503;53.560;10.246;2022-10-31T01:56:37;101294.91;;;13.52;100.00
18749;BME280;9503;53.560;10.246;2022-10-31T01:59:07;101292.44;;;13.55;100.00
18749;BME280;9503;53.560;10.246;2022-10-31T02:01:35;101292.50;;;13.57;100.00
18749;BME280;9503;53.560;10.246;2022-10-31T02:04:02;101300.19;;;13.55;100.00
18749;BME280;9503;53.560;10.246;2022-10-31T02:06:34;101297.25;;;13.48;100.00
18749;BME280;9503;53.560;10.246;2022-10-31T02:09:04;101298.81;;;13.44;100.00
18749;BME280;9503;53.560;10.246;2022-10-31T02:11:32;101305.78;;;13.47;100.00
18749;BME280;9503;53.560;10.246;2022-10-31T02:14:02;101301.31;;;13.43;100.00
18749;BME280;9503;53.560;10.246;2022-10-31T02:16:28;101309.03;;;13.43;100.00
18749;BME280;9503;53.560;10.246;2022-10-31T02:18:55;101302.00;;;13.39;100.00
18749;BME280;9503;53.560;10.246;2022-10-31T02:21:28;101311.59;;;13.43;100.00
18749;BME280;9503;53.560;10.246;2022-10-31T02:24:23;101312.28;;;13.39;100.00
18749;BME280;9503;53.560;10.246;2022-10-31T02:27:11;101315.59;;;13.36;100.00
18749;BME280;9503;53.560;10.246;2022-10-31T02:29:57;101314.00;;;13.38;100.00
18749;BME280;9503;53.560;10.246;2022-10-31T02:32:38;101311.47;;;13.40;100.00
18749;BME280;9503;53.560;10.246;2022-10-31T02:35:13;101315.69;;;13.38;100.00
18749;BME280;9503;53.560;10.246;2022-10-31T02:37:48;101319.22;;;13.40;100.00
18749;BME280;9503;53.560;10.246;2022-10-31T02:40:22;101313.94;;;13.37;100.00
18749;BME280;9503;53.560;10.246;2022-10-31T02:42:59;101324.75;;;13.30;100.00
18749;BME280;9503;53.560;10.246;2022-10-31T02:45:30;101327.09;;;13.25;100.00
18749;BME280;9503;53.560;10.246;2022-10-31T02:48:04;101326.78;;;13.19;100.00
18749;BME280;9503;53.560;10.246;2022-10-31T02:50:37;101333.00;;;13.22;100.00
18749;BME280;9503;53.560;10.246;2022-10-31T02:53:06;101317.34;;;13.19;100.00
18749;BME280;9503;53.560;10.246;2022-10-31T02:55:47;101331.78;;;13.16;100.00
18749;BME280;9503;53.560;10.246;2022-10-31T02:58:18;101329.28;;;13.17;100.00
18749;BME280;9503;53.560;10.246;2022-10-31T03:00:56;101333.06;;;13.24;100.00
18749;BME280;9503;53.560;10.246;2022-10-31T03:03:33;101337.53;;;13.28;100.00
18749;BME280;9503;53.560;10.246;2022-10-31T03:06:06;101339.69;;;13.37;100.00
18749;BME280;9503;53.560;10.246;2022-10-31T03:08:39;101341.03;;;13.48;100.00
18749;BME280;9503;53.560;10.246;2022-10-31T03:11:09;101340.38;;;13.52;100.00
18749;BME280;9503;53.560;10.246;2022-10-31T03:13:41;101333.03;;;13.42;100.00
18749;BME280;9503;53.560;10.246;2022-10-31T03:16:12;101335.19;;;13.33;100.00
18749;BME280;9503;53.560;10.246;2022-10-31T03:18:43;101339.66;;;13.19;100.00
18749;BME280;9503;53.560;10.246;2022-10-31T03:21:14;101344.31;;;13.08;100.00
18749;BME280;9503;53.560;10.246;2022-10-31T03:23:44;101345.63;;;13.00;100.00
18749;BME280;9503;53.560;10.246;2022-10-31T03:26:14;101347.09;;;12.95;100.00
18749;BME280;9503;53.560;10.246;2022-10-31T03:28:44;101346.84;;;12.90;100.00
18749;BME280;9503;53.560;10.246;2022-10-31T03:31:15;101358.09;;;12.92;100.00
18749;BME280;9503;53.560;10.246;2022-10-31T03:33:45;101355.69;;;12.95;100.00
18749;BME280;9503;53.560;10.246;2022-10-31T03:36:14;101356.22;;;12.88;100.00
18749;BME280;9503;53.560;10.246;2022-10-31T03:38:42;101361.22;;;12.85;100.00
18749;BME280;9503;53.560;10.246;2022-10-31T03:41:13;101359.53;;;12.86;100.00
18749;BME280;9503;53.560;10.246;2022-10-31T03:43:47;101360.16;;;12.82;100.00
18749;BME280;9503;53.560;10.246;2022-10-31T03:46:16;101373.78;;;12.79;100.00
18749;BME280;9503;53.560;10.246;2022-10-31T03:48:44;101377.22;;;12.80;100.00
18749;BME280;9503;53.560;10.246;2022-10-31T03:51:15;101379.06;;;12.82;100.00
18749;BME280;9503;53.560;10.246;2022-10-31T03:53:46;101380.25;;;12.89;100.00
18749;BME280;9503;53.560;10.246;2022-10-31T03:56:20;101384.38;;;12.85;100.00
18749;BME280;9503;53.560;10.246;2022-10-31T03:58:53;101391.19;;;12.85;100.00
18749;BME280;9503;53.560;10.246;2022-10-31T04:01:24;101394.56;;;12.84;100.00
18749;BME280;9503;53.560;10.246;2022-10-31T04:03:54;101394.66;;;12.85;100.00
18749;BME280;9503;53.560;10.246;2022-10-31T04:06:22;101400.69;;;12.86;100.00
18749;BME280;9503;53.560;10.246;2022-10-31T04:08:53;101405.09;;;12.88;100.00
18749;BME280;9503;53.560;10.246;2022-10-31T04:11:26;101407.53;;;12.85;100.00
18749;BME280;9503;53.560;10.246;2022-10-31T04:13:54;101408.56;;;12.89;100.00
18749;BME280;9503;53.560;10.246;2022-10-31T04:16:23;101411.19;;;12.90;100.00
18749;BME280;9503;53.560;10.246;2022-10-31T04:18:51;101421.56;;;12.92;100.00
18749;BME280;9503;53.560;10.246;2022-10-31T04:21:19;101412.38;;;12.97;100.00
18749;BME280;9503;53.560;10.246;2022-10-31T04:23:45;101423.75;;;13.00;100.00
18749;BME280;9503;53.560;10.246;2022-10-31T04:26:12;101414.59;;;13.07;100.00
18749;BME280;9503;53.560;10.246;2022-10-31T04:28:39;101419.09;;;13.11;100.00
18749;BME280;9503;53.560;10.246;2022-10-31T04:31:05;101427.13;;;13.17;100.00
18749;BME280;9503;53.560;10.246;2022-10-31T04:33:32;101417.66;;;13.16;100.00
18749;BME280;9503;53.560;10.246;2022-10-31T04:35:58;101411.69;;;13.17;100.00
18749;BME280;9503;53.560;10.246;2022-10-31T04:38:26;101418.69;;;13.20;100.00
18749;BME280;9503;53.560;10.246;2022-10-31T04:40:52;101421.63;;;13.27;100.00
18749;BME280;9503;53.560;10.246;2022-10-31T04:43:19;101414.78;;;13.28;100.00
18749;BME280;9503;53.560;10.246;2022-10-31T04:45:45;101420.69;;;13.25;100.00
18749;BME280;9503;53.560;10.246;2022-10-31T04:48:12;101412.00;;;13.23;100.00
18749;BME280;9503;53.560;10.246;2022-10-31T04:50:38;101417.31;;;13.26;100.00
18749;BME280;9503;53.560;10.246;2022-10-31T04:53:05;101420.81;;;13.28;100.00
18749;BME280;9503;53.560;10.246;2022-10-31T04:55:33;101420.81;;;13.28;100.00
18749;BME280;9503;53.560;10.246;2022-10-31T04:58:01;101422.75;;;13.33;100.00
18749;BME280;9503;53.560;10.246;2022-10-31T05:00:27;101426.34;;;13.36;100.00
18749;BME280;9503;53.560;10.246;2022-10-31T05:02:55;101416.28;;;13.41;100.00
18749;BME280;9503;53.560;10.246;2022-10-31T05:05:24;101428.50;;;13.45;100.00
18749;BME280;9503;53.560;10.246;2022-10-31T05:07:52;101424.22;;;13.45;100.00
18749;BME280;9503;53.560;10.246;2022-10-31T05:10:23;101418.19;;;13.45;100.00
18749;BME280;9503;53.560;10.246;2022-10-31T05:12:52;101424.66;;;13.54;100.00
18749;BME280;9503;53.560;10.246;2022-10-31T05:15:20;101428.47;;;13.63;100.00
18749;BME280;9503;53.560;10.246;2022-10-31T05:17:47;101418.59;;;13.72;100.00
18749;BME280;9503;53.560;10.246;2022-10-31T05:20:15;101422.50;;;13.81;100.00
18749;BME280;9503;53.560;10.246;2022-10-31T05:22:42;101421.97;;;13.89;100.00
18749;BME280;9503;53.560;10.246;2022-10-31T05:25:10;101428.13;;;13.92;100.00
18749;BME280;9503;53.560;10.246;2022-10-31T05:27:38;101431.16;;;13.83;100.00
18749;BME280;9503;53.560;10.246;2022-10-31T05:30:11;101440.25;;;13.95;100.00
18749;BME280;9503;53.560;10.246;2022-10-31T05:32:38;101438.13;;;14.04;100.00
18749;BME280;9503;53.560;10.246;2022-10-31T05:35:06;101440.22;;;14.13;100.00
18749;BME280;9503;53.560;10.246;2022-10-31T05:37:33;101435.47;;;14.22;100.00
18749;BME280;9503;53.560;10.246;2022-10-31T05:40:00;101434.31;;;14.15;100.00
18749;BME280;9503;53.560;10.246;2022-10-31T05:42:26;101445.47;;;14.14;100.00
18749;BME280;9503;53.560;10.246;2022-10-31T05:44:53;101435.47;;;14.22;100.00
18749;BME280;9503;53.560;10.246;2022-10-31T05:47:21;101436.03;;;14.34;100.00
18749;BME280;9503;53.560;10.246;2022-10-31T05:49:47;101436.38;;;14.42;100.00
18749;BME280;9503;53.560;10.246;2022-10-31T05:52:14;101435.72;;;14.46;100.00
18749;BME280;9503;53.560;10.246;2022-10-31T05:54:41;101435.03;;;14.50;100.00
18749;BME280;9503;53.560;10.246;2022-10-31T05:57:07;101435.16;;;14.53;100.00
18749;BME280;9503;53.560;10.246;2022-10-31T05:59:34;101429.19;;;14.54;100.00
18749;BME280;9503;53.560;10.246;2022-10-31T06:02:00;101433.66;;;14.58;100.00
18749;BME280;9503;53.560;10.246;2022-10-31T06:04:28;101432.78;;;14.57;100.00
18749;BME280;9503;53.560;10.246;2022-10-31T06:06:56;101438.88;;;14.59;100.00
18749;BME280;9503;53.560;10.246;2022-10-31T06:09:23;101435.81;;;14.68;100.00
18749;BME280;9503;53.560;10.246;2022-10-31T06:11:49;101439.81;;;14.61;100.00
18749;BME280;9503;53.560;10.246;2022-10-31T06:14:16;101444.66;;;14.54;100.00
18749;BME280;9503;53.560;10.246;2022-10-31T06:16:42;101447.44;;;14.58;100.00
18749;BME280;9503;53.560;10.246;2022-10-31T06:19:09;101447.25;;;14.54;100.00
18749;BME280;9503;53.560;10.246;2022-10-31T06:21:36;101451.19;;;14.65;100.00
18749;BME280;9503;53.560;10.246;2022-10-31T06:24:04;101447.22;;;14.73;100.00
18749;BME280;9503;53.560;10.246;2022-10-31T06:26:30;101443.75;;;14.73;100.00
18749;BME280;9503;53.560;10.246;2022-10-31T06:28:57;101449.59;;;14.69;100.00
18749;BME280;9503;53.560;10.246;2022-10-31T06:31:23;101457.97;;;14.63;100.00
18749;BME280;9503;53.560;10.246;2022-10-31T06:33:50;101453.75;;;14.65;100.00
18749;BME280;9503;53.560;10.246;2022-10-31T06:36:16;101464.06;;;14.84;100.00
18749;BME280;9503;53.560;10.246;2022-10-31T06:38:44;101462.50;;;14.88;100.00
18749;BME280;9503;53.560;10.246;2022-10-31T06:41:10;101473.09;;;14.75;100.00
18749;BME280;9503;53.560;10.246;2022-10-31T06:43:37;101475.47;;;14.89;100.00
18749;BME280;9503;53.560;10.246;2022-10-31T06:46:04;101483.69;;;14.81;100.00
18749;BME280;9503;53.560;10.246;2022-10-31T06:48:31;101479.88;;;14.92;100.00
18749;BME280;9503;53.560;10.246;2022-10-31T06:50:58;101472.31;;;14.97;100.00
18749;BME280;9503;53.560;10.246;2022-10-31T06:53:25;101477.31;;;15.13;100.00
18749;BME280;9503;53.560;10.246;2022-10-31T06:55:54;101476.53;;;14.95;100.00
18749;BME280;9503;53.560;10.246;2022-10-31T06:58:21;101480.88;;;14.96;100.00
18749;BME280;9503;53.560;10.246;2022-10-31T07:00:48;101486.44;;;14.84;100.00
18749;BME280;9503;53.560;10.246;2022-10-31T07:03:15;101479.75;;;14.89;100.00
18749;BME280;9503;53.560;10.246;2022-10-31T07:05:42;101489.91;;;15.05;100.00
18749;BME280;9503;53.560;10.246;2022-10-31T07:08:10;101500.00;;;14.99;100.00
18749;BME280;9503;53.560;10.246;2022-10-31T07:10:38;101509.41;;;14.78;100.00
18749;BME280;9503;53.560;10.246;2022-10-31T07:13:09;101509.19;;;14.92;100.00
18749;BME280;9503;53.560;10.246;2022-10-31T07:15:38;101510.31;;;15.20;100.00
18749;BME280;9503;53.560;10.246;2022-10-31T07:18:07;101509.50;;;15.42;100.00
18749;BME280;9503;53.560;10.246;2022-10-31T07:20:34;101503.41;;;15.61;100.00
18749;BME280;9503;53.560;10.246;2022-10-31T07:23:00;101515.09;;;15.72;100.00
18749;BME280;9503;53.560;10.246;2022-10-31T07:25:27;101518.97;;;15.83;100.00
18749;BME280;9503;53.560;10.246;2022-10-31T07:27:54;101518.22;;;15.23;100.00
18749;BME280;9503;53.560;10.246;2022-10-31T07:30:22;101523.75;;;15.53;100.00
18749;BME280;9503;53.560;10.246;2022-10-31T07:32:49;101522.88;;;15.32;100.00
18749;BME280;9503;53.560;10.246;2022-10-31T07:35:17;101515.69;;;15.45;100.00
18749;BME280;9503;53.560;10.246;2022-10-31T07:37:44;101515.59;;;15.63;100.00
18749;BME280;9503;53.560;10.246;2022-10-31T07:40:12;101522.19;;;15.78;100.00
18749;BME280;9503;53.560;10.246;2022-10-31T07:42:39;101527.47;;;15.60;100.00
18749;BME280;9503;53.560;10.246;2022-10-31T07:45:09;101536.44;;;15.47;100.00
18749;BME280;9503;53.560;10.246;2022-10-31T07:47:40;101534.56;;;15.64;100.00
18749;BME280;9503;53.560;10.246;2022-10-31T07:50:08;101532.75;;;15.61;100.00
18749;BME280;9503;53.560;10.246;2022-10-31T07:52:35;101538.06;;;15.45;100.00
18749;BME280;9503;53.560;10.246;2022-10-31T07:55:02;101535.19;;;15.58;100.00
18749;BME280;9503;53.560;10.246;2022-10-31T07:57:29;101539.25;;;15.72;100.00
18749;BME280;9503;53.560;10.246;2022-10-31T07:59:55;101527.25;;;15.74;100.00
18749;BME280;9503;53.560;10.246;2022-10-31T08:02:23;101536.78;;;15.75;100.00
18749;BME280;9503;53.560;10.246;2022-10-31T08:04:51;101541.28;;;15.60;100.00
18749;BME280;9503;53.560;10.246;2022-10-31T08:07:18;101536.25;;;15.84;100.00
18749;BME280;9503;53.560;10.246;2022-10-31T08:09:44;101542.44;;;15.88;100.00
18749;BME280;9503;53.560;10.246;2022-10-31T08:12:11;101543.00;;;15.81;100.00
18749;BME280;9503;53.560;10.246;2022-10-31T08:14:37;101539.75;;;15.86;100.00
18749;BME280;9503;53.560;10.246;2022-10-31T08:17:04;101545.03;;;15.88;100.00
18749;BME280;9503;53.560;10.246;2022-10-31T08:19:30;101539.31;;;15.96;100.00
18749;BME280;9503;53.560;10.246;2022-10-31T08:21:58;101539.56;;;16.02;100.00
18749;BME280;9503;53.560;10.246;2022-10-31T08:24:25;101541.03;;;16.18;100.00
18749;BME280;9503;53.560;10.246;2022-10-31T08:26:52;101535.97;;;15.99;100.00
18749;BME280;9503;53.560;10.246;2022-10-31T08:29:18;101533.91;;;15.90;100.00
18749;BME280;9503;53.560;10.246;2022-10-31T08:31:45;101536.09;;;15.80;100.00
18749;BME280;9503;53.560;10.246;2022-10-31T08:34:11;101541.66;;;15.90;100.00
18749;BME280;9503;53.560;10.246;2022-10-31T08:36:38;101539.97;;;15.70;100.00
18749;BME280;9503;53.560;10.246;2022-10-31T08:39:06;101546.38;;;16.00;100.00
18749;BME280;9503;53.560;10.246;2022-10-31T08:41:32;101554.38;;;16.07;100.00
18749;BME280;9503;53.560;10.246;2022-10-31T08:44:00;101553.34;;;16.01;100.00
18749;BME280;9503;53.560;10.246;2022-10-31T08:46:26;101545.28;;;15.94;100.00
18749;BME280;9503;53.560;10.246;2022-10-31T08:48:53;101549.91;;;16.02;100.00
18749;BME280;9503;53.560;10.246;2022-10-31T08:51:19;101553.53;;;16.08;100.00
18749;BME280;9503;53.560;10.246;2022-10-31T08:53:46;101554.38;;;16.07;100.00
18749;BME280;9503;53.560;10.246;2022-10-31T08:56:13;101554.84;;;16.19;100.00
18749;BME280;9503;53.560;10.246;2022-10-31T08:58:40;101549.25;;;16.08;100.00
18749;BME280;9503;53.560;10.246;2022-10-31T09:01:06;101549.09;;;16.03;100.00
18749;BME280;9503;53.560;10.246;2022-10-31T09:03:33;101548.16;;;16.01;100.00
18749;BME280;9503;53.560;10.246;2022-10-31T09:06:01;101549.69;;;16.19;100.00
18749;BME280;9503;53.560;10.246;2022-10-31T09:08:32;101542.41;;;16.31;100.00
18749;BME280;9503;53.560;10.246;2022-10-31T09:10:59;101554.50;;;16.32;100.00
18749;BME280;9503;53.560;10.246;2022-10-31T09:13:27;101539.13;;;16.37;100.00
18749;BME280;9503;53.560;10.246;2022-10-31T09:15:53;101535.41;;;16.52;100.00
18749;BME280;9503;53.560;10.246;2022-10-31T09:18:21;101532.31;;;16.85;100.00
18749;BME280;9503;53.560;10.246;2022-10-31T09:20:50;101541.03;;;16.87;100.00
18749;BME280;9503;53.560;10.246;2022-10-31T09:23:18;101538.84;;;16.29;100.00
18749;BME280;9503;53.560;10.246;2022-10-31T09:25:46;101535.44;;;16.30;100.00
18749;BME280;9503;53.560;10.246;2022-10-31T09:28:14;101518.19;;;16.75;100.00
18749;BME280;9503;53.560;10.246;2022-10-31T09:30:46;101531.16;;;16.30;100.00
18749;BME280;9503;53.560;10.246;2022-10-31T09:33:13;101530.78;;;17.16;100.00
18749;BME280;9503;53.560;10.246;2022-10-31T09:35:40;101523.84;;;17.40;100.00
18749;BME280;9503;53.560;10.246;2022-10-31T09:38:09;101514.84;;;17.81;100.00
18749;BME280;9503;53.560;10.246;2022-10-31T09:40:38;101520.22;;;18.44;100.00
18749;BME280;9503;53.560;10.246;2022-10-31T09:43:14;101523.22;;;18.90;100.00
18749;BME280;9503;53.560;10.246;2022-10-31T09:45:50;101524.47;;;19.04;97.84
18749;BME280;9503;53.560;10.246;2022-10-31T09:48:37;101526.97;;;19.01;94.25
18749;BME280;9503;53.560;10.246;2022-10-31T09:51:10;101537.28;;;18.96;94.63
18749;BME280;9503;53.560;10.246;2022-10-31T09:53:40;101537.75;;;18.53;94.09
18749;BME280;9503;53.560;10.246;2022-10-31T09:56:10;101533.47;;;18.84;94.23
18749;BME280;9503;53.560;10.246;2022-10-31T09:58:42;101540.03;;;18.71;93.49
18749;BME280;9503;53.560;10.246;2022-10-31T10:01:21;101550.56;;;18.47;92.75
18749;BME280;9503;53.560;10.246;2022-10-31T10:03:54;101550.97;;;17.50;90.40
18749;BME280;9503;53.560;10.246;2022-10-31T10:06:24;101554.34;;;18.00;93.97
18749;BME280;9503;53.560;10.246;2022-10-31T10:08:51;101559.84;;;18.67;91.63
18749;BME280;9503;53.560;10.246;2022-10-31T10:11:27;101549.63;;;19.05;87.83
18749;BME280;9503;53.560;10.246;2022-10-31T10:14:05;101559.69;;;18.93;85.87
18749;BME280;9503;53.560;10.246;2022-10-31T10:16:45;101558.47;;;17.67;88.66
18749;BME280;9503;53.560;10.246;2022-10-31T10:19:25;101557.13;;;17.79;91.01
18749;BME280;9503;53.560;10.246;2022-10-31T10:22:01;101558.28;;;18.15;89.18
18749;BME280;9503;53.560;10.246;2022-10-31T10:24:49;101554.09;;;18.20;87.99
18749;BME280;9503;53.560;10.246;2022-10-31T10:27:23;101554.53;;;18.36;89.18
18749;BME280;9503;53.560;10.246;2022-10-31T10:30:00;101556.50;;;18.43;89.46
18749;BME280;9503;53.560;10.246;2022-10-31T10:32:31;101554.72;;;18.70;89.96
18749;BME280;9503;53.560;10.246;2022-10-31T10:35:14;101548.84;;;19.09;85.67
18749;BME280;9503;53.560;10.246;2022-10-31T10:37:45;101544.28;;;19.32;82.51
18749;BME280;9503;53.560;10.246;2022-10-31T10:40:16;101543.38;;;19.31;81.86
18749;BME280;9503;53.560;10.246;2022-10-31T10:42:45;101543.69;;;19.44;81.23
18749;BME280;9503;53.560;10.246;2022-10-31T10:45:34;101544.44;;;19.73;80.16
18749;BME280;9503;53.560;10.246;2022-10-31T10:48:29;101539.09;;;19.67;79.55
18749;BME280;9503;53.560;10.246;2022-10-31T10:50:57;101542.09;;;19.49;78.92
18749;BME280;9503;53.560;10.246;2022-10-31T10:53:36;101535.44;;;19.60;79.58
18749;BME280;9503;53.560;10.246;2022-10-31T10:56:18;101528.59;;;19.62;78.87
18749;BME280;9503;53.560;10.246;2022-10-31T10:58:47;101526.09;;;19.68;79.60
18749;BME280;9503;53.560;10.246;2022-10-31T11:01:14;101516.84;;;19.10;80.88
18749;BME280;9503;53.560;10.246;2022-10-31T11:03:42;101520.81;;;19.64;79.39
18749;BME280;9503;53.560;10.246;2022-10-31T11:06:17;101522.19;;;19.85;78.33
18749;BME280;9503;53.560;10.246;2022-10-31T11:08:47;101520.78;;;20.00;77.77
18749;BME280;9503;53.560;10.246;2022-10-31T11:11:23;101523.66;;;19.74;77.70
18749;BME280;9503;53.560;10.246;2022-10-31T11:13:56;101529.19;;;19.88;77.97
18749;BME280;9503;53.560;10.246;2022-10-31T11:16:30;101528.75;;;20.07;77.13
18749;BME280;9503;53.560;10.246;2022-10-31T11:19:08;101531.66;;;20.21;76.65
18749;BME280;9503;53.560;10.246;2022-10-31T11:21:36;101521.47;;;19.22;79.33
18749;BME280;9503;53.560;10.246;2022-10-31T11:24:03;101522.50;;;19.28;79.38
18749;BME280;9503;53.560;10.246;2022-10-31T11:26:30;101505.97;;;18.32;82.33
18749;BME280;9503;53.560;10.246;2022-10-31T11:29:00;101514.44;;;18.55;82.44
18749;BME280;9503;53.560;10.246;2022-10-31T11:31:28;101512.59;;;17.39;85.72
18749;BME280;9503;53.560;10.246;2022-10-31T11:34:00;101503.72;;;17.33;88.32
18749;BME280;9503;53.560;10.246;2022-10-31T11:36:30;101499.31;;;17.83;85.88
18749;BME280;9503;53.560;10.246;2022-10-31T11:38:59;101492.53;;;18.15;85.01
18749;BME280;9503;53.560;10.246;2022-10-31T11:41:28;101495.84;;;18.41;83.58
18749;BME280;9503;53.560;10.246;2022-10-31T11:43:57;101495.44;;;17.70;85.95
18749;BME280;9503;53.560;10.246;2022-10-31T11:46:30;101495.84;;;18.41;83.25
18749;BME280;9503;53.560;10.246;2022-10-31T11:48:59;101495.63;;;18.33;83.68
18749;BME280;9503;53.560;10.246;2022-10-31T11:51:29;101511.19;;;19.26;80.35
18749;BME280;9503;53.560;10.246;2022-10-31T11:53:58;101505.84;;;19.91;77.74
18749;BME280;9503;53.560;10.246;2022-10-31T11:56:25;101497.75;;;20.20;75.72
18749;BME280;9503;53.560;10.246;2022-10-31T11:58:55;101500.59;;;20.30;75.42
18749;BME280;9503;53.560;10.246;2022-10-31T12:01:24;101494.81;;;20.03;76.69
18749;BME280;9503;53.560;10.246;2022-10-31T12:03:56;101496.31;;;19.92;75.91
18749;BME280;9503;53.560;10.246;2022-10-31T12:06:30;101482.59;;;19.99;75.99
18749;BME280;9503;53.560;10.246;2022-10-31T12:08:59;101477.56;;;20.08;75.64
18749;BME280;9503;53.560;10.246;2022-10-31T12:11:41;101477.81;;;19.45;76.58
18749;BME280;9503;53.560;10.246;2022-10-31T12:14:18;101485.38;;;19.34;77.10
18749;BME280;9503;53.560;10.246;2022-10-31T12:16:54;101481.34;;;19.83;76.30
18749;BME280;9503;53.560;10.246;2022-10-31T12:19:32;101481.66;;;19.59;76.44
18749;BME280;9503;53.560;10.246;2022-10-31T12:22:11;101476.94;;;19.79;76.75
18749;BME280;9503;53.560;10.246;2022-10-31T12:25:00;101478.09;;;19.92;76.20
18749;BME280;9503;53.560;10.246;2022-10-31T12:27:39;101465.94;;;19.91;76.48
18749;BME280;9503;53.560;10.246;2022-10-31T12:30:15;101470.00;;;19.79;76.46
18749;BME280;9503;53.560;10.246;2022-10-31T12:32:59;101474.16;;;18.69;79.82
18749;BME280;9503;53.560;10.246;2022-10-31T12:35:40;101470.81;;;18.13;82.70
18749;BME280;9503;53.560;10.246;2022-10-31T12:38:22;101465.09;;;17.94;83.20
18749;BME280;9503;53.560;10.246;2022-10-31T12:41:06;101461.97;;;18.66;81.30
18749;BME280;9503;53.560;10.246;2022-10-31T12:43:44;101460.00;;;17.99;83.40
18749;BME280;9503;53.560;10.246;2022-10-31T12:46:18;101464.72;;;18.72;80.61
18749;BME280;9503;53.560;10.246;2022-10-31T12:48:56;101465.88;;;18.82;79.10
18749;BME280;9503;53.560;10.246;2022-10-31T12:51:35;101471.31;;;18.93;79.14
18749;BME280;9503;53.560;10.246;2022-10-31T12:54:22;101471.53;;;19.00;78.42
18749;BME280;9503;53.560;10.246;2022-10-31T12:56:59;101461.84;;;18.63;79.96